Enchantment of the Seas — C6FZ7 — position and weather

sailwx.info

Track history (hours):
 
Tides and Currents Weather Stations Pressure Air Temp Water Temp Dewpoint Dewpoint Depression Visibility Wind Speed Wind Dir Waves Ship Positions

Enchantment of the Seas (Bahamas)

Last reported at 2014-Aug-28 23:26 UTC. Time now 2014-Sep-01 07:27 UTC.
Position N 27°07' W 079°27'.

Type: Passenger vessel. MMSI: 311733000.

Date/timePositionNaut miles runAvg speedWind from/ knotsBaromVisibWave heightAir tempDewpointWater temp
2014-Aug-28 23:26N 27°07' W 079°27'8 9.1
2014-Aug-28 22:32N 27°00' W 079°22'12 8.9
2014-Aug-28 21:10N 26°50' W 079°14'5 8.5
2014-Aug-28 20:33N 26°45' W 079°11'9 8.8
2014-Aug-28 19:33N 26°38' W 079°06'13 9.1
2014-Aug-28 18:07N 26°29' W 078°55'5 9.0
2014-Aug-28 17:33N 26°26' W 078°51'  
2014-Aug-22 01:31N 27°04' W 079°28'1313.6
2014-Aug-22 00:32N 26°54' W 079°18'  
Track history (hours):
 
Tides and Currents Weather Stations Pressure Air Temp Water Temp Dewpoint Dewpoint Depression Visibility Wind Speed Wind Dir Waves Ship Positions

Enchantment of the Seas (Bahamas)

Last reported at 2014-Aug-28 23:26 UTC. Time now 2014-Sep-01 07:27 UTC.
Position N 27°07' W 079°27'.

Type: Passenger vessel. MMSI: 311733000.

Date/timePositionNaut miles runAvg speedWind from/ knotsBaromVisibWave heightAir tempDewpointWater temp
2014-Aug-28 23:26N 27°07' W 079°27'8 9.1
2014-Aug-28 22:32N 27°00' W 079°22'12 8.9
2014-Aug-28 21:10N 26°50' W 079°14'5 8.5
2014-Aug-28 20:33N 26°45' W 079°11'9 8.8
2014-Aug-28 19:33N 26°38' W 079°06'13 9.1
2014-Aug-28 18:07N 26°29' W 078°55'5 9.0
2014-Aug-28 17:33N 26°26' W 078°51'  
2014-Aug-22 01:31N 27°04' W 079°28'1313.6
2014-Aug-22 00:32N 26°54' W 079°18'  

Dump ship's entire track history